Time;durP1;ratioP1;P1;durP2;ratioP2;P2;SDS_P1;SDS_P2;PMS_P1;PMS_P2;Temp;Humidity;BMP_temperature;BMP_pressure;BME280_temperature;BME280_humidity;BME280_pressure;Samples;Min_cycle;Max_cycle;Signal;HPM_P1;HPM_P2
2022/07/21 00:01:11;;;;;;;0.40;0.40;;;;;;;25.38;nan;95342.00;5039572;28;20216;-67
2022/07/21 00:03:38;;;;;;;0.30;0.30;;;;;;;25.06;nan;95346.34;5047200;28;20308;-67
2022/07/21 00:06:06;;;;;;;0.30;0.30;;;;;;;25.38;nan;95346.59;5041027;28;20205;-66
2022/07/21 00:08:33;;;;;;;1.60;1.50;;;;;;;25.46;nan;95351.81;5028352;28;20348;-66
2022/07/21 00:11:00;;;;;;;1.20;1.10;;;;;;;25.54;nan;95344.75;5040419;28;20208;-67
2022/07/21 00:13:27;;;;;;;0.30;0.30;;;;;;;25.32;nan;95331.78;5043195;28;20276;-67
2022/07/21 00:15:54;;;;;;;0.40;0.40;;;;;;;25.37;nan;95344.97;5030534;28;20728;-67
2022/07/21 00:18:21;;;;;;;0.30;0.30;;;;;;;25.62;nan;95335.81;5035370;28;20691;-66
2022/07/21 00:20:49;;;;;;;0.13;0.13;;;;;;;25.65;nan;95346.66;5037881;28;20217;-67
2022/07/21 00:23:17;;;;;;;0.53;0.53;;;;;;;25.54;nan;95345.56;5012896;28;20790;-67
2022/07/21 00:25:44;;;;;;;0.87;0.87;;;;;;;25.47;nan;95349.91;5020822;28;20224;-67
2022/07/21 00:28:11;;;;;;;0.10;0.10;;;;;;;25.36;nan;95348.78;5018006;28;20740;-66
2022/07/21 00:30:38;;;;;;;1.13;1.03;;;;;;;25.23;nan;95339.19;5041921;28;20208;-66
2022/07/21 00:33:05;;;;;;;0.30;0.30;;;;;;;25.31;nan;95346.34;5030587;28;20193;-66
2022/07/21 00:35:33;;;;;;;0.30;0.30;;;;;;;25.05;nan;95350.13;5049862;28;20208;-66
2022/07/21 00:38:00;;;;;;;1.00;0.67;;;;;;;25.12;nan;95348.78;5036792;28;20697;-67
2022/07/21 00:40:28;;;;;;;0.43;0.43;;;;;;;24.92;nan;95353.16;5015988;28;20193;-67
2022/07/21 00:42:55;;;;;;;0.30;0.30;;;;;;;24.95;nan;95345.22;5018254;28;20733;-67
2022/07/21 00:45:22;;;;;;;0.30;0.30;;;;;;;25.00;nan;95353.03;5042044;28;20286;-66
2022/07/21 00:47:50;;;;;;;0.37;0.37;;;;;;;24.94;nan;95349.00;5039820;28;20200;-66
2022/07/21 00:50:20;;;;;;;0.60;0.50;;;;;;;24.83;nan;95353.28;5036070;28;20205;-66
2022/07/21 00:52:48;;;;;;;0.30;0.30;;;;;;;24.56;nan;95363.81;5049986;28;20224;-67
2022/07/21 00:55:19;;;;;;;0.43;0.40;;;;;;;24.50;nan;95360.56;5019752;28;20432;-68
2022/07/21 00:57:47;;;;;;;0.30;0.30;;;;;;;24.49;nan;95364.31;5031198;28;20261;-67
2022/07/21 01:00:21;;;;;;;0.20;0.20;;;;;;;24.01;nan;95359.59;5046835;28;20260;-66
2022/07/21 01:02:48;;;;;;;2.40;1.33;;;;;;;23.73;nan;95355.09;5019857;28;20196;-67
2022/07/21 01:05:17;;;;;;;0.27;0.27;;;;;;;23.83;nan;95341.31;5026718;28;20314;-67
2022/07/21 01:07:50;;;;;;;0.30;0.30;;;;;;;23.46;nan;95342.22;5034933;28;20296;-68
2022/07/21 01:10:20;;;;;;;1.90;0.60;;;;;;;23.65;nan;95342.56;5028721;28;20751;-66
2022/07/21 01:12:48;;;;;;;0.30;0.30;;;;;;;23.86;nan;95343.34;5047917;28;20204;-66
2022/07/21 01:15:16;;;;;;;0.33;0.33;;;;;;;24.01;nan;95343.53;5030606;28;20221;-65
2022/07/21 01:17:44;;;;;;;0.57;0.57;;;;;;;24.06;nan;95334.53;5043294;28;20204;-66
2022/07/21 01:20:14;;;;;;;0.27;0.27;;;;;;;24.20;nan;95335.00;5022722;28;20292;-66
2022/07/21 01:22:44;;;;;;;0.57;0.53;;;;;;;24.45;nan;95320.56;5036712;28;20204;-66
2022/07/21 01:25:11;;;;;;;0.50;0.50;;;;;;;24.39;nan;95324.59;5034966;28;20290;-68
2022/07/21 01:27:39;;;;;;;0.27;0.27;;;;;;;24.41;nan;95327.72;5049080;28;20283;-66
2022/07/21 01:30:08;;;;;;;0.20;0.20;;;;;;;24.50;nan;95333.75;5035424;28;20197;-66
2022/07/21 01:32:37;;;;;;;0.57;0.40;;;;;;;24.48;nan;95325.28;5038722;28;20279;-66
2022/07/21 01:35:07;;;;;;;0.50;0.50;;;;;;;24.30;nan;95328.47;5043221;28;20225;-66
2022/07/21 01:37:37;;;;;;;0.30;0.30;;;;;;;24.35;nan;95331.72;5039203;28;20194;-67
2022/07/21 01:42:52;;;;;;;0.53;0.53;;;;;;;24.29;nan;95327.66;5029195;28;20627;-67
2022/07/21 01:45:20;;;;;;;0.10;0.10;;;;;;;24.33;nan;95327.78;5018756;28;20350;-67
2022/07/21 01:47:47;;;;;;;5.90;1.47;;;;;;;24.41;nan;95318.88;5049589;28;20255;-67
2022/07/21 01:50:14;;;;;;;0.20;0.20;;;;;;;24.29;nan;95322.31;5045049;28;20200;-66
2022/07/21 01:52:41;;;;;;;0.67;0.67;;;;;;;24.27;nan;95319.19;5017971;28;20304;-66
2022/07/21 01:55:08;;;;;;;0.30;0.30;;;;;;;24.35;nan;95331.72;5037155;28;20194;-66
2022/07/21 01:57:35;;;;;;;0.63;0.63;;;;;;;24.26;nan;95331.00;5022478;28;20335;-66
2022/07/21 02:00:04;;;;;;;0.40;0.40;;;;;;;24.40;nan;95323.47;5032019;28;20205;-66
2022/07/21 02:02:32;;;;;;;0.20;0.20;;;;;;;24.26;nan;95322.97;5033907;28;20213;-66
2022/07/21 02:04:59;;;;;;;0.10;0.10;;;;;;;24.00;nan;95322.41;5019731;28;20230;-66
2022/07/21 02:07:26;;;;;;;0.30;0.30;;;;;;;24.19;nan;95322.75;5041735;28;20803;-65
2022/07/21 02:09:53;;;;;;;0.60;0.60;;;;;;;24.16;nan;95326.06;5026331;28;20209;-66
2022/07/21 02:12:20;;;;;;;0.43;0.43;;;;;;;24.26;nan;95317.63;5030720;28;20225;-67
2022/07/21 02:14:47;;;;;;;0.63;0.63;;;;;;;24.18;nan;95321.16;5027174;28;20243;-67
2022/07/21 02:17:14;;;;;;;0.63;0.63;;;;;;;24.06;nan;95318.47;5033146;28;20212;-66
2022/07/21 02:19:41;;;;;;;0.50;0.50;;;;;;;24.25;nan;95323.31;5019837;28;20201;-66
2022/07/21 02:22:08;;;;;;;0.70;0.53;;;;;;;24.17;nan;95330.31;5030023;28;20279;-65
2022/07/21 02:24:35;;;;;;;0.40;0.40;;;;;;;24.13;nan;95321.38;5024636;28;20730;-66
2022/07/21 02:27:02;;;;;;;0.60;0.60;;;;;;;24.19;nan;95317.38;5045845;28;20356;-66
2022/07/21 02:29:29;;;;;;;0.40;0.40;;;;;;;23.88;nan;95322.38;5033092;28;20291;-67
2022/07/21 02:31:56;;;;;;;1.00;1.00;;;;;;;24.05;nan;95332.94;5051894;28;21040;-66
2022/07/21 02:34:24;;;;;;;0.33;0.33;;;;;;;23.92;nan;95323.28;5029895;28;20216;-66
2022/07/21 02:36:51;;;;;;;0.57;0.57;;;;;;;23.86;nan;95319.25;5047890;28;20330;-67
2022/07/21 02:39:19;;;;;;;0.40;0.40;;;;;;;23.96;nan;95308.91;5052106;28;20200;-66
2022/07/21 02:41:46;;;;;;;0.30;0.30;;;;;;;23.97;nan;95320.41;5024045;28;20194;-66
2022/07/21 02:44:14;;;;;;;0.63;0.63;;;;;;;23.70;nan;95321.72;5052166;28;20212;-66
2022/07/21 02:46:40;;;;;;;0.40;0.40;;;;;;;23.41;nan;95324.47;5051805;28;20192;-66
2022/07/21 02:49:07;;;;;;;0.67;0.67;;;;;;;23.50;nan;95306.47;5052064;28;20191;-67
2022/07/21 02:51:34;;;;;;;1.10;0.93;;;;;;;23.24;nan;95313.88;5052394;28;20207;-67
2022/07/21 02:54:01;;;;;;;0.73;0.57;;;;;;;23.16;nan;95316.59;5023809;28;20193;-67
2022/07/21 02:56:28;;;;;;;0.20;0.20;;;;;;;23.06;nan;95318.50;5024191;28;20302;-66
2022/07/21 02:58:55;;;;;;;9.33;2.70;;;;;;;23.16;nan;95321.94;5024355;28;20688;-67
2022/07/21 03:01:22;;;;;;;0.80;0.60;;;;;;;23.42;nan;95317.22;5027015;28;20259;-66
2022/07/21 03:03:49;;;;;;;0.30;0.30;;;;;;;23.16;nan;95316.59;5048789;28;20215;-66
2022/07/21 03:06:16;;;;;;;0.30;0.30;;;;;;;22.97;nan;95319.69;5030263;28;20672;-68
2022/07/21 03:08:42;;;;;;;0.53;0.53;;;;;;;23.10;nan;95324.03;5024556;28;20194;-67
2022/07/21 03:11:09;;;;;;;0.50;0.50;;;;;;;23.17;nan;95328.84;5030230;28;20270;-67
2022/07/21 03:13:36;;;;;;;0.30;0.30;;;;;;;23.38;nan;95327.78;5051733;28;20306;-66
2022/07/21 03:16:03;;;;;;;0.93;0.50;;;;;;;23.36;nan;95332.69;5023246;28;20192;-66
2022/07/21 03:18:30;;;;;;;1.80;1.13;;;;;;;23.16;nan;95338.75;5038198;28;20586;-67
2022/07/21 03:20:58;;;;;;;0.87;0.87;;;;;;;22.82;nan;95318.34;5012109;28;20186;-67
2022/07/21 03:23:25;;;;;;;0.20;0.20;;;;;;;23.06;nan;95329.22;5048034;28;20675;-66
2022/07/21 03:25:52;;;;;;;0.77;0.77;;;;;;;22.87;nan;95330.72;5040066;28;20253;-67
2022/07/21 03:28:19;;;;;;;1.07;0.73;;;;;;;22.91;nan;95332.44;5017158;28;20229;-67
2022/07/21 03:30:46;;;;;;;1.77;1.60;;;;;;;23.08;nan;95328.91;5031437;28;20339;-67
2022/07/21 03:33:13;;;;;;;0.57;0.57;;;;;;;23.11;nan;95326.38;5032972;28;20330;-67
2022/07/21 03:35:40;;;;;;;0.33;0.33;;;;;;;23.28;nan;95327.38;5043074;28;20242;-66
2022/07/21 03:38:07;;;;;;;2.63;1.63;;;;;;;23.06;nan;95334.56;5044838;28;20191;-67
2022/07/21 03:40:36;;;;;;;1.27;0.90;;;;;;;23.08;nan;95336.94;5037589;28;20322;-66
2022/07/21 03:43:05;;;;;;;0.97;0.97;;;;;;;23.12;nan;95338.63;5038618;28;20338;-67
2022/07/21 03:45:33;;;;;;;0.60;0.60;;;;;;;23.10;nan;95338.16;5022422;28;20227;-67
2022/07/21 03:48:02;;;;;;;0.20;0.20;;;;;;;23.21;nan;95335.13;5028311;28;20815;-67
2022/07/21 03:50:29;;;;;;;1.33;1.23;;;;;;;23.13;nan;95339.41;5046456;28;20317;-68
2022/07/21 03:52:57;;;;;;;0.20;0.20;;;;;;;23.10;nan;95340.81;5040493;28;20203;-67
2022/07/21 03:55:24;;;;;;;0.50;0.50;;;;;;;23.27;nan;95339.16;5037187;28;20652;-67
2022/07/21 03:57:52;;;;;;;5.00;1.33;;;;;;;23.21;nan;95335.88;5022190;28;20193;-65
2022/07/21 04:00:23;;;;;;;0.57;0.57;;;;;;;23.17;nan;95325.06;5048588;28;20195;-68
2022/07/21 04:02:50;;;;;;;0.40;0.40;;;;;;;23.35;nan;95351.72;5040210;28;20194;-68
2022/07/21 04:05:18;;;;;;;0.40;0.40;;;;;;;23.42;nan;95346.66;5014082;28;20286;-67
2022/07/21 04:07:48;;;;;;;0.40;0.40;;;;;;;23.41;nan;95335.16;5024299;28;20722;-67
2022/07/21 04:10:18;;;;;;;0.80;0.80;;;;;;;23.53;nan;95347.84;5019704;28;20197;-68
2022/07/21 04:12:46;;;;;;;0.50;0.50;;;;;;;23.45;nan;95349.47;5018217;28;20278;-67
2022/07/21 04:15:13;;;;;;;0.63;0.63;;;;;;;23.70;nan;95342.38;5042857;28;20193;-68
2022/07/21 04:17:40;;;;;;;0.20;0.20;;;;;;;23.54;nan;95344.81;5044025;28;20196;-66
2022/07/21 04:20:09;;;;;;;0.53;0.53;;;;;;;23.56;nan;95349.84;5049686;28;20694;-66
2022/07/21 04:22:36;;;;;;;0.63;0.63;;;;;;;23.69;nan;95351.47;5038289;28;20585;-67
2022/07/21 04:25:05;;;;;;;0.43;0.43;;;;;;;23.77;nan;95347.97;5049049;28;20242;-66
2022/07/21 04:27:32;;;;;;;0.40;0.40;;;;;;;23.69;nan;95340.78;5039113;28;20241;-66
2022/07/21 04:30:00;;;;;;;0.23;0.23;;;;;;;23.71;nan;95343.91;5030392;28;20288;-66
2022/07/21 04:32:27;;;;;;;0.30;0.30;;;;;;;23.87;nan;95350.22;5041029;28;20237;-67
2022/07/21 04:34:54;;;;;;;2.73;0.70;;;;;;;23.81;nan;95348.88;5046746;28;20210;-66
2022/07/21 04:37:22;;;;;;;0.87;0.87;;;;;;;23.59;nan;95357.25;5026468;28;20237;-66
2022/07/21 04:39:49;;;;;;;0.30;0.30;;;;;;;23.67;nan;95343.00;5050063;28;20192;-68
2022/07/21 04:42:19;;;;;;;0.67;0.67;;;;;;;23.84;nan;95345.56;5017358;28;20200;-67
2022/07/21 04:44:46;;;;;;;0.60;0.60;;;;;;;23.63;nan;95353.56;5043038;28;20204;-68
2022/07/21 04:47:13;;;;;;;0.50;0.50;;;;;;;23.59;nan;95354.56;5015367;28;20288;-67
2022/07/21 04:49:40;;;;;;;3.57;1.20;;;;;;;23.69;nan;95356.84;5041313;28;20287;-66
2022/07/21 04:52:06;;;;;;;0.27;0.27;;;;;;;23.89;nan;95345.34;5043043;28;20659;-67
2022/07/21 04:54:33;;;;;;;0.20;0.20;;;;;;;23.99;nan;95366.38;5029082;28;20189;-68
2022/07/21 04:57:02;;;;;;;0.30;0.30;;;;;;;23.91;nan;95359.19;5021524;28;20197;-67
2022/07/21 04:59:30;;;;;;;0.80;0.80;;;;;;;24.05;nan;95354.34;5028641;28;20656;-67
2022/07/21 05:01:58;;;;;;;10.90;2.10;;;;;;;24.06;nan;95350.59;5043961;28;20223;-67
2022/07/21 05:04:26;;;;;;;2.73;1.57;;;;;;;23.53;nan;95362.00;5049680;28;20215;-68
2022/07/21 05:06:53;;;;;;;0.47;0.47;;;;;;;23.74;nan;95368.13;5046306;28;20197;-68
2022/07/21 05:09:20;;;;;;;0.40;0.30;;;;;;;23.88;nan;95362.53;5010129;28;20814;-67
2022/07/21 05:11:47;;;;;;;0.63;0.63;;;;;;;24.19;nan;95352.19;5024921;28;20199;-67
2022/07/21 05:14:14;;;;;;;0.57;0.57;;;;;;;24.21;nan;95359.91;5037451;28;20252;-66
2022/07/21 05:16:42;;;;;;;0.23;0.23;;;;;;;24.26;nan;95351.66;5038106;28;20267;-67
2022/07/21 05:19:09;;;;;;;1.17;1.07;;;;;;;24.07;nan;95354.81;5036607;28;20667;-67
2022/07/21 05:21:36;;;;;;;0.90;0.90;;;;;;;24.36;nan;95354.69;5029653;28;20631;-67
2022/07/21 05:24:03;;;;;;;0.90;0.90;;;;;;;24.01;nan;95348.13;5019712;28;20197;-66
2022/07/21 05:26:30;;;;;;;2.47;2.10;;;;;;;24.39;nan;95354.03;5037380;28;20224;-69
2022/07/21 05:28:57;;;;;;;0.50;0.50;;;;;;;24.52;nan;95357.53;5018602;28;20207;-67
2022/07/21 05:31:24;;;;;;;0.70;0.70;;;;;;;24.10;nan;95332.75;5030780;28;20230;-66
2022/07/21 05:33:51;;;;;;;0.70;0.70;;;;;;;24.40;nan;95360.97;5028399;28;20208;-67
2022/07/21 05:36:18;;;;;;;0.60;0.60;;;;;;;24.40;nan;95357.50;5052586;28;20245;-66
2022/07/21 05:38:46;;;;;;;0.50;0.50;;;;;;;24.21;nan;95358.00;5039436;28;20216;-67
2022/07/21 05:41:14;;;;;;;0.53;0.50;;;;;;;24.45;nan;95362.66;5030033;28;20190;-67
2022/07/21 05:43:41;;;;;;;0.63;0.63;;;;;;;24.19;nan;95360.22;5045772;28;20255;-67
2022/07/21 05:46:08;;;;;;;1.10;1.03;;;;;;;24.33;nan;95355.38;5043412;28;20224;-67
2022/07/21 05:48:35;;;;;;;0.20;0.20;;;;;;;24.63;nan;95351.44;5037033;28;20197;-67
2022/07/21 05:51:02;;;;;;;1.03;0.93;;;;;;;24.55;nan;95352.28;5025079;28;20218;-66
2022/07/21 05:53:29;;;;;;;0.70;0.70;;;;;;;24.72;nan;95352.13;5041398;28;20199;-69
2022/07/21 05:55:56;;;;;;;0.30;0.30;;;;;;;24.73;nan;95337.63;5013533;28;20213;-66
2022/07/21 05:58:24;;;;;;;0.67;0.67;;;;;;;25.24;nan;95356.81;5042910;28;20195;-68
2022/07/21 06:01:08;;;;;;;0.77;0.77;;;;;;;25.00;nan;95355.72;5041476;28;20199;-67
2022/07/21 06:03:41;;;;;;;0.60;0.60;;;;;;;24.94;nan;95353.59;5052853;28;20257;-66
2022/07/21 06:06:09;;;;;;;0.90;0.90;;;;;;;24.57;nan;95360.78;5032357;28;20217;-66
2022/07/21 06:08:38;;;;;;;0.97;0.93;;;;;;;25.25;nan;95355.72;5026855;28;20263;-67
2022/07/21 06:11:09;;;;;;;0.40;0.40;;;;;;;25.21;nan;95346.78;5029506;28;20209;-66
2022/07/21 06:13:37;;;;;;;1.73;1.20;;;;;;;25.46;nan;95353.72;5052918;28;20366;-66
2022/07/21 06:16:05;;;;;;;3.00;1.17;;;;;;;25.18;nan;95352.81;5024547;28;20200;-66
2022/07/21 06:18:32;;;;;;;0.40;0.40;;;;;;;25.33;nan;95349.47;5053269;28;20279;-66
2022/07/21 06:20:59;;;;;;;0.20;0.20;;;;;;;25.76;nan;95342.38;5027415;28;20543;-66
2022/07/21 06:23:27;;;;;;;0.40;0.40;;;;;;;26.00;nan;95336.13;5037415;28;20261;-66
2022/07/21 06:25:54;;;;;;;0.70;0.70;;;;;;;26.15;nan;95332.72;5052413;28;20212;-66
2022/07/21 06:28:22;;;;;;;3.10;0.97;;;;;;;25.95;nan;95336.34;5024105;28;20262;-67
2022/07/21 06:30:49;;;;;;;0.60;0.60;;;;;;;25.79;nan;95341.69;5032891;28;20228;-66
2022/07/21 06:33:16;;;;;;;0.73;0.73;;;;;;;26.08;nan;95337.13;5040743;28;20695;-66
2022/07/21 06:35:43;;;;;;;5.30;1.03;;;;;;;26.39;nan;95337.19;5029683;28;20197;-67
2022/07/21 06:38:10;;;;;;;0.30;0.30;;;;;;;26.47;nan;95334.38;5023627;28;20637;-67
2022/07/21 06:40:39;;;;;;;0.57;0.57;;;;;;;26.52;nan;95334.09;5012888;28;20301;-67
2022/07/21 06:43:06;;;;;;;1.27;1.03;;;;;;;26.48;nan;95311.72;5025786;28;20194;-65
2022/07/21 06:45:52;;;;;;;0.33;0.33;;;;;;;26.53;nan;95326.81;5002522;28;20616;-66
2022/07/21 06:48:21;;;;;;;0.43;0.43;;;;;;;26.49;nan;95320.56;5026639;28;20235;-66
2022/07/21 06:50:49;;;;;;;0.53;0.53;;;;;;;26.86;nan;95320.00;5039307;28;20220;-67
2022/07/21 06:53:16;;;;;;;0.43;0.43;;;;;;;26.89;nan;95318.53;5039707;28;20197;-66
2022/07/21 06:55:44;;;;;;;0.70;0.70;;;;;;;27.04;nan;95326.56;5024484;28;20316;-66
2022/07/21 06:58:12;;;;;;;0.77;0.77;;;;;;;26.82;nan;95319.13;5040304;28;20207;-66
2022/07/21 07:00:39;;;;;;;1.07;0.97;;;;;;;26.65;nan;95318.66;5052255;28;20287;-67
2022/07/21 07:03:07;;;;;;;0.67;0.67;;;;;;;26.85;nan;95313.06;5039589;28;20204;-67
2022/07/21 07:05:34;;;;;;;2.87;1.33;;;;;;;27.29;nan;95307.53;5040848;28;20320;-65
2022/07/21 07:08:02;;;;;;;1.30;1.10;;;;;;;27.47;nan;95306.81;5025437;28;20200;-67
2022/07/21 07:10:29;;;;;;;1.00;0.90;;;;;;;27.81;nan;95318.69;5033367;28;20193;-67
2022/07/21 07:12:56;;;;;;;1.30;0.83;;;;;;;28.15;nan;95301.69;5020729;28;20185;-65
2022/07/21 07:15:43;;;;;;;0.77;0.77;;;;;;;28.31;nan;95318.56;5043798;28;20216;-67
2022/07/21 07:18:10;;;;;;;0.70;0.60;;;;;;;28.08;nan;95304.25;5045181;28;20202;-66
2022/07/21 07:20:37;;;;;;;3.03;1.03;;;;;;;28.64;nan;95299.91;5031676;28;20203;-66
2022/07/21 07:23:04;;;;;;;0.80;0.80;;;;;;;28.71;nan;95300.03;5051403;28;20694;-68
2022/07/21 07:25:31;;;;;;;0.90;0.90;;;;;;;28.37;nan;95298.25;5051228;28;20223;-66
2022/07/21 07:27:59;;;;;;;0.90;0.90;;;;;;;28.65;nan;95306.06;5023033;28;20226;-68
2022/07/21 07:30:26;;;;;;;0.77;0.77;;;;;;;28.93;nan;95299.25;5038019;28;20854;-65
2022/07/21 07:32:52;;;;;;;1.93;1.27;;;;;;;29.31;nan;95294.81;5039168;28;20246;-67
2022/07/21 07:35:20;;;;;;;0.63;0.63;;;;;;;29.29;nan;95295.16;5044007;28;20186;-67
2022/07/21 07:37:47;;;;;;;0.73;0.73;;;;;;;29.53;nan;95275.03;5023615;28;20193;-66
2022/07/21 07:40:17;;;;;;;0.83;0.83;;;;;;;29.52;nan;95287.00;5031056;28;20197;-68
2022/07/21 07:42:44;;;;;;;0.40;0.40;;;;;;;29.51;nan;95288.13;5041163;28;20192;-69
2022/07/21 07:45:12;;;;;;;0.43;0.43;;;;;;;29.54;nan;95276.63;5034727;28;20679;-67
2022/07/21 07:47:40;;;;;;;0.80;0.80;;;;;;;29.63;nan;95277.13;5039675;28;20694;-66
2022/07/21 07:50:09;;;;;;;0.57;0.57;;;;;;;29.72;nan;95273.03;5050887;28;20231;-67
2022/07/21 07:52:37;;;;;;;0.60;0.60;;;;;;;29.44;nan;95266.44;5035903;28;20545;-63
2022/07/21 07:55:07;;;;;;;0.40;0.40;;;;;;;29.70;nan;95286.13;5022044;28;20211;-66
2022/07/21 07:57:34;;;;;;;1.10;1.03;;;;;;;29.81;nan;95270.03;5020030;28;20199;-66
2022/07/21 08:00:05;;;;;;;0.50;0.40;;;;;;;29.94;nan;95269.41;5045796;28;20192;-66
2022/07/21 08:02:52;;;;;;;0.80;0.80;;;;;;;29.68;nan;95263.28;5050967;28;20196;-65
2022/07/21 08:05:19;;;;;;;1.20;0.67;;;;;;;30.37;nan;95264.47;5022764;28;20223;-64
2022/07/21 08:07:46;;;;;;;0.20;0.20;;;;;;;30.26;nan;95252.78;5045978;28;20196;-63
2022/07/21 08:10:13;;;;;;;0.53;0.53;;;;;;;30.29;nan;95252.81;5019377;28;20283;-66
2022/07/21 08:13:01;;;;;;;0.47;0.47;;;;;;;30.70;nan;95250.88;5033926;28;20188;-65
2022/07/21 08:15:32;;;;;;;0.97;0.53;;;;;;;31.16;nan;95245.81;5050370;28;20199;-68
2022/07/21 08:18:00;;;;;;;0.37;0.37;;;;;;;30.95;nan;95251.09;5036202;28;20193;-68
2022/07/21 08:20:27;;;;;;;0.30;0.30;;;;;;;30.82;nan;95242.50;5050447;28;20272;-66
2022/07/21 08:22:54;;;;;;;0.37;0.37;;;;;;;31.01;nan;95244.94;5050334;28;20239;-68
2022/07/21 08:25:21;;;;;;;1.03;0.87;;;;;;;30.89;nan;95237.91;5043699;28;20216;-67
2022/07/21 08:27:48;;;;;;;0.57;0.57;;;;;;;31.37;nan;95230.50;5043769;28;20282;-67
2022/07/21 08:30:15;;;;;;;0.87;0.87;;;;;;;31.24;nan;95236.59;5045180;28;20282;-67
2022/07/21 08:32:42;;;;;;;0.47;0.47;;;;;;;31.37;nan;95235.16;5042039;28;20232;-66
2022/07/21 08:35:09;;;;;;;0.40;0.40;;;;;;;31.33;nan;95239.72;5036363;28;20196;-66
2022/07/21 08:37:37;;;;;;;0.77;0.77;;;;;;;31.54;nan;95239.84;5049975;28;20197;-68
2022/07/21 08:40:08;;;;;;;0.93;0.93;;;;;;;31.49;nan;95237.53;5050140;28;20192;-65
2022/07/21 08:42:35;;;;;;;0.50;0.50;;;;;;;31.04;nan;95229.91;5032727;28;20194;-67
2022/07/21 08:45:04;;;;;;;0.60;0.60;;;;;;;30.89;nan;95218.94;5038723;28;20227;-64
2022/07/21 08:47:32;;;;;;;0.60;0.60;;;;;;;31.58;nan;95229.81;5025342;28;20498;-65
2022/07/21 08:50:00;;;;;;;0.53;0.53;;;;;;;31.59;nan;95223.22;5023298;28;20212;-69
2022/07/21 08:52:27;;;;;;;2.63;1.07;;;;;;;31.56;nan;95221.28;5021343;28;20188;-67
2022/07/21 08:54:56;;;;;;;0.50;0.50;;;;;;;31.66;nan;95215.16;5047790;28;20632;-67
2022/07/21 08:57:22;;;;;;;0.87;0.87;;;;;;;31.64;nan;95223.63;5025130;28;20688;-67
2022/07/21 08:59:50;;;;;;;0.30;0.30;;;;;;;32.23;nan;95214.16;5036459;28;20681;-67
2022/07/21 09:02:35;;;;;;;1.20;0.47;;;;;;;32.65;nan;95206.06;5037599;28;20193;-67
2022/07/21 09:05:04;;;;;;;0.40;0.40;;;;;;;32.17;nan;95207.56;5052882;28;20200;-66
2022/07/21 09:07:53;;;;;;;0.50;0.50;;;;;;;31.81;nan;95209.38;5042763;28;20216;-67
2022/07/21 09:10:23;;;;;;;0.53;0.53;;;;;;;31.28;nan;95199.47;5028919;28;20271;-64
2022/07/21 09:13:05;;;;;;;0.83;0.80;;;;;;;32.00;nan;95192.06;5019765;28;20206;-63
2022/07/21 09:15:33;;;;;;;0.40;0.40;;;;;;;31.92;nan;95195.88;5029630;28;20204;-62
2022/07/21 09:18:13;;;;;;;0.50;0.50;;;;;;;31.89;nan;95191.25;5031825;28;20737;-62
2022/07/21 09:20:58;;;;;;;0.33;0.33;;;;;;;32.26;nan;95188.22;5049606;28;20185;-66
2022/07/21 09:23:25;;;;;;;0.63;0.63;;;;;;;32.41;nan;95198.66;5035293;28;20675;-64
2022/07/21 09:25:55;;;;;;;0.47;0.47;;;;;;;32.55;nan;95190.59;5027089;28;20221;-69
2022/07/21 09:28:23;;;;;;;0.40;0.40;;;;;;;32.60;nan;95198.34;5044998;28;20235;-66
2022/07/21 09:31:07;;;;;;;0.73;0.73;;;;;;;32.67;nan;95198.31;5039169;28;20204;-68
2022/07/21 09:33:41;;;;;;;0.47;0.47;;;;;;;33.11;nan;95194.41;5043555;28;20193;-66
2022/07/21 09:36:19;;;;;;;0.57;0.57;;;;;;;33.06;nan;95192.09;5029228;28;20676;-70
2022/07/21 09:38:58;;;;;;;0.40;0.40;;;;;;;33.76;nan;95184.50;5038038;28;20686;-69
2022/07/21 09:41:26;;;;;;;0.47;0.47;;;;;;;33.39;nan;95188.91;5035943;28;20576;-65
2022/07/21 09:43:55;;;;;;;1.10;0.90;;;;;;;33.35;nan;95182.69;5037111;28;20202;-68
2022/07/21 09:46:29;;;;;;;0.80;0.80;;;;;;;33.75;nan;95180.25;5036841;28;20205;-67
2022/07/21 09:49:00;;;;;;;0.73;0.73;;;;;;;34.03;nan;95168.47;5048414;28;20232;-69
2022/07/21 09:51:47;;;;;;;0.80;0.80;;;;;;;33.98;nan;95176.25;5048122;28;20207;-66
2022/07/21 09:54:13;;;;;;;0.30;0.30;;;;;;;34.44;nan;95171.25;5029296;28;20197;-67
2022/07/21 09:56:44;;;;;;;0.70;0.70;;;;;;;34.39;nan;95175.19;5015252;28;20194;-66
2022/07/21 09:59:13;;;;;;;0.60;0.60;;;;;;;34.30;nan;95172.16;5037353;28;20197;-66
2022/07/21 10:01:40;;;;;;;0.37;0.37;;;;;;;33.89;nan;95184.06;5047135;28;20192;-72
2022/07/21 10:04:08;;;;;;;0.50;0.50;;;;;;;33.29;nan;95159.81;5029339;28;20197;-70
2022/07/21 10:06:38;;;;;;;0.50;0.50;;;;;;;33.67;nan;95169.78;5029176;28;20632;-70
2022/07/21 10:09:07;;;;;;;0.53;0.53;;;;;;;33.52;nan;95154.72;5022860;28;20200;-70
2022/07/21 10:11:35;;;;;;;0.50;0.50;;;;;;;33.72;nan;95161.97;5042856;28;20201;-66
2022/07/21 10:14:03;;;;;;;0.20;0.20;;;;;;;33.24;nan;95161.00;5041236;28;20211;-67
2022/07/21 10:16:30;;;;;;;3.50;1.00;;;;;;;33.42;nan;95174.53;5045642;28;20299;-67
2022/07/21 10:19:14;;;;;;;0.33;0.33;;;;;;;34.09;nan;95160.66;5043009;28;20659;-68
2022/07/21 10:22:02;;;;;;;1.33;0.90;;;;;;;34.22;nan;95158.97;5047824;28;20748;-67
2022/07/21 10:24:30;;;;;;;2.03;1.30;;;;;;;34.59;nan;95157.16;5046556;28;20216;-68
2022/07/21 10:27:03;;;;;;;1.30;0.70;;;;;;;34.76;nan;95165.56;5025137;28;20239;-64
2022/07/21 10:29:48;;;;;;;0.43;0.43;;;;;;;34.07;nan;95157.56;5052586;28;20736;-66
2022/07/21 10:32:16;;;;;;;0.47;0.47;;;;;;;34.28;nan;95147.28;5037247;28;20263;-66
2022/07/21 10:34:44;;;;;;;0.47;0.47;;;;;;;34.62;nan;95150.91;5040926;28;20204;-68
2022/07/21 10:37:43;;;;;;;0.73;0.53;;;;;;;35.17;nan;95144.53;5045869;28;20191;-69
2022/07/21 10:40:12;;;;;;;0.50;0.50;;;;;;;35.44;nan;95139.97;5043137;28;20277;-67
2022/07/21 10:42:39;;;;;;;0.63;0.50;;;;;;;35.55;nan;95146.06;5012868;28;20193;-68
2022/07/21 10:45:33;;;;;;;0.60;0.60;;;;;;;35.10;nan;95137.22;5026178;28;20694;-68
2022/07/21 10:48:03;;;;;;;0.70;0.70;;;;;;;35.20;nan;95130.13;5036215;28;20287;-67
2022/07/21 10:50:41;;;;;;;0.30;0.30;;;;;;;35.44;nan;95134.50;5038241;28;20702;-66
2022/07/21 10:53:16;;;;;;;0.20;0.20;;;;;;;35.49;nan;95128.63;5052609;28;20196;-67
2022/07/21 10:56:01;;;;;;;1.03;1.03;;;;;;;35.43;nan;95124.81;5025877;28;20198;-68
2022/07/21 10:58:38;;;;;;;4.40;1.27;;;;;;;34.58;nan;95127.63;5044955;28;20215;-65
2022/07/21 11:01:25;;;;;;;2.50;0.63;;;;;;;34.58;nan;95122.94;5032940;28;20208;-67
2022/07/21 11:04:12;;;;;;;0.27;0.27;;;;;;;34.43;nan;95112.56;5040427;28;20285;-68
2022/07/21 11:06:41;;;;;;;0.47;0.47;;;;;;;35.23;nan;95112.97;5038564;28;20220;-70
2022/07/21 11:09:12;;;;;;;0.63;0.63;;;;;;;35.28;nan;95105.09;5012065;28;20257;-63
2022/07/21 11:11:59;;;;;;;0.50;0.43;;;;;;;34.28;nan;95106.47;5045431;28;20417;-69
2022/07/21 11:14:44;;;;;;;0.53;0.40;;;;;;;35.15;nan;95095.91;5020454;28;20212;-65
2022/07/21 11:17:29;;;;;;;0.40;0.40;;;;;;;34.55;nan;95107.44;5042235;28;20571;-63
2022/07/21 11:19:56;;;;;;;0.30;0.30;;;;;;;34.34;nan;95080.38;5050475;28;20192;-69
2022/07/21 11:22:30;;;;;;;0.20;0.20;;;;;;;35.31;nan;95098.06;5051622;28;20196;-68
2022/07/21 11:25:06;;;;;;;1.33;0.93;;;;;;;35.53;nan;95093.91;5051523;28;20279;-67
2022/07/21 11:27:35;;;;;;;0.70;0.70;;;;;;;35.76;nan;95091.25;5039621;28;20729;-66
2022/07/21 11:30:06;;;;;;;0.50;0.50;;;;;;;35.95;nan;95093.31;5047340;28;20200;-66
2022/07/21 11:32:34;;;;;;;0.67;0.67;;;;;;;36.08;nan;95104.44;5030779;28;20189;-64
2022/07/21 11:35:07;;;;;;;0.50;0.50;;;;;;;36.32;nan;95104.03;5011578;28;20198;-70
2022/07/21 11:37:39;;;;;;;0.47;0.47;;;;;;;36.14;nan;95091.88;5030349;28;20204;-68
2022/07/21 11:40:12;;;;;;;0.20;0.20;;;;;;;36.39;nan;95089.53;5018231;28;20740;-66
2022/07/21 11:42:41;;;;;;;1.17;1.07;;;;;;;36.60;nan;95089.94;5030274;28;20196;-65
2022/07/21 11:45:09;;;;;;;0.40;0.40;;;;;;;36.02;nan;95095.97;5020036;28;20213;-66
2022/07/21 11:47:36;;;;;;;0.70;0.70;;;;;;;36.29;nan;95096.69;5019073;28;20233;-65
2022/07/21 11:50:06;;;;;;;0.53;0.53;;;;;;;36.50;nan;95090.13;5045405;28;20196;-65
2022/07/21 11:52:39;;;;;;;0.63;0.63;;;;;;;36.46;nan;95090.19;5051062;28;20302;-67
2022/07/21 11:55:08;;;;;;;0.63;0.60;;;;;;;36.18;nan;95074.28;5045746;28;20204;-65
2022/07/21 11:57:40;;;;;;;0.43;0.43;;;;;;;35.85;nan;95077.09;5020179;28;20742;-66
2022/07/21 12:00:08;;;;;;;0.37;0.37;;;;;;;35.68;nan;95078.91;5019032;28;20653;-65
2022/07/21 12:02:38;;;;;;;1.87;1.00;;;;;;;36.04;nan;95082.66;5049628;28;20204;-67
2022/07/21 12:05:12;;;;;;;0.40;0.40;;;;;;;36.04;nan;95074.47;5050596;28;20200;-66